Warsaw, IN

12:07 PM EST on February 10, 2016 (GMT -0500)
15 South | | Change Station
CLOSE
Current Station
Personal Weather Station
Location: Warsaw, IN
Elevation: 840 ft
Nearby Weather Stations

Elev 840 ft 41.22 °N, 85.87 °W | Updated 6 minutes ago

Light Snow
Light Snow
17.7 °F
Feels Like 5 °F
N
11.0
Wind Variable Wind from WSW
Gusts 18.0 mph

Today
High -- | Low -- °F
--% Chance of Precip.
Yesterday
High -- | Low -- °F
Precip. -- in
Pressure 29.95 in
Visibility 5.0 miles
Clouds Mostly Cloudy 1800 ft
Mostly Cloudy 2300 ft
Mostly Cloudy 5000 ft
Windchill 5 °F
Dew Point 12 °F
Humidity 77%
Rainfall 0.00 in
Snow Depth Not available.
7:45 AM 6:10 PM
Waxing Crescent, 6% visible
METAR KASW 101655Z AUTO 26012G18KT 5SM -SN BKN018 BKN023 BKN050 M07/M11 A2995 RMK AO2
Pressure 29.95 in
Visibility 5.0 miles
Clouds Mostly Cloudy 1800 ft
Mostly Cloudy 2300 ft
Mostly Cloudy 5000 ft
Windchill 5 °F
Dew Point 12 °F
Humidity 77%
Rainfall 0.00 in
Snow Depth Not available.
7:45 AM 6:10 PM
Waxing Crescent, 6% visible
METAR KASW 101655Z AUTO 26012G18KT 5SM -SN BKN018 BKN023 BKN050 M07/M11 A2995 RMK AO2

10-Day Weather Forecast

Almanac

Astronomy

Feb. 10, 2016 Rise Set
Actual Time
Civil Twilight
Nautical Twilight
Astronomical Twilight
Moon
Length of Visible Light
Length of Day
Tomorrow will be .
, % of the Moon is Illuminated

Today's Extremes

State Highs State Lows

Community

WunderPhotos

Upload Photos

1,891,892 photos uploaded!

WunderBlog® & News

Nearby

Air Quality

  Air Quality AQ Index Pollutant
Not available.

Snow Depth

Station Depth Elevation

Earthquake Activity

City Distance Mag. Time & Date
Minimum magnitude displayed is 2.5.

Coastal Water Temperatures

Place Temperature

Stations

Nearby Weather Stations

Station Location Temp. Windchill Dew Point Humidity Wind Precip. Elev Updated Type
                   

Watches & Warnings

There are currently no watches in effect.